Observation data for Anton on 05/26/2019      Previous  Date  Next       Current Mesonet Observations  Soil Data  Daily Summary Page  Observations in Plain Language
KAOS 260500Z 16014KT 21/17 A2996 RMK A01 T02050173  RH  086%=      5-min Rain = 0
KAOS 260505Z 16013KT 20/17 A2996 RMK A01 T02040172  RH  086%=      5-min Rain = 0
KAOS 260510Z 16012KT 20/17 A2996 RMK A01 T02030172  RH  086%=      5-min Rain = 0
KAOS 260515Z 17012KT 20/17 A2996 RMK A01 T02010171  RH  087%=      5-min Rain = 0
KAOS 260520Z 17012KT 20/17 A2996 RMK A01 T02010170  RH  087%=      5-min Rain = 0
KAOS 260525Z 17012KT 20/17 A2996 RMK A01 T01990169  RH  087%=      5-min Rain = 0
KAOS 260530Z 17012KT 20/17 A2996 RMK A01 T01990168  RH  086%=      5-min Rain = 0
KAOS 260535Z 17011KT 20/17 A2996 RMK A01 T01980168  RH  087%=      5-min Rain = 0
KAOS 260540Z 17011KT 20/17 A2996 RMK A01 T01970167  RH  087%=      5-min Rain = 0
KAOS 260545Z 18011KT 20/17 A2997 RMK A01 T01970166  RH  087%=      5-min Rain = 0
KAOS 260550Z 17010KT 20/17 A2996 RMK A01 T01960166  RH  087%=      5-min Rain = 0
KAOS 260555Z 17010KT 19/17 A2996 RMK A01 T01940165  RH  087%=      5-min Rain = 0
KAOS 260600Z 17009KT 19/17 A2996 RMK A01 T01930165  RH  088%=      5-min Rain = 0
KAOS 260605Z 16009KT 19/17 A2996 RMK A01 T01930165  RH  088%=      5-min Rain = 0
KAOS 260610Z 17008KT 19/16 A2996 RMK A01 T01910164  RH  088%=      5-min Rain = 0
KAOS 260615Z 17007KT 19/16 A2996 RMK A01 T01890163  RH  089%=      5-min Rain = 0
KAOS 260620Z 17007KT 19/16 A2996 RMK A01 T01880163  RH  090%=      5-min Rain = 0
KAOS 260625Z 17007KT 19/16 A2996 RMK A01 T01870163  RH  090%=      5-min Rain = 0
KAOS 260630Z 17008KT 19/16 A2996 RMK A01 T01870163  RH  090%=      5-min Rain = 0
KAOS 260635Z 17008KT 19/16 A2997 RMK A01 T01870163  RH  090%=      5-min Rain = 0
KAOS 260640Z 17007KT 19/16 A2996 RMK A01 T01860162  RH  090%=      5-min Rain = 0
KAOS 260645Z 17007KT 19/16 A2996 RMK A01 T01850162  RH  091%=      5-min Rain = 0
KAOS 260650Z 17006KT 18/16 A2996 RMK A01 T01840161  RH  091%=      5-min Rain = 0
KAOS 260655Z 17005KT 18/16 A2996 RMK A01 T01830161  RH  092%=      5-min Rain = 0
KAOS 260700Z 17005KT 18/16 A2996 RMK A01 T01820161  RH  092%=      5-min Rain = 0
KAOS 260705Z 17004KT 18/16 A2996 RMK A01 T01800160  RH  092%=      5-min Rain = 0
KAOS 260710Z 16003KT 18/16 A2996 RMK A01 T01790160  RH  093%=      5-min Rain = 0
KAOS 260715Z 15002KT 18/16 A2996 RMK A01 T01790161  RH  093%=      5-min Rain = 0
KAOS 260720Z 11001KT 18/16 A2996 RMK A01 T01790161  RH  093%=      5-min Rain = 0
KAOS 260725Z 06002KT 18/16 A2997 RMK A01 T01780160  RH  093%=      5-min Rain = 0
KAOS 260730Z 05004KT 18/16 A2997 RMK A01 T01760159  RH  094%=      5-min Rain = 0
KAOS 260735Z 06004KT 17/16 A2997 RMK A01 T01740158  RH  095%=      5-min Rain = 0
KAOS 260740Z 07004KT 18/16 A2997 RMK A01 T01750159  RH  095%=      5-min Rain = 0
KAOS 260745Z 08004KT 17/16 A2997 RMK A01 T01740159  RH  095%=      5-min Rain = 0
KAOS 260750Z 09004KT 17/16 A2997 RMK A01 T01740159  RH  095%=      5-min Rain = 0
KAOS 260755Z 12004KT 18/16 A2997 RMK A01 T01750159  RH  095%=      5-min Rain = 0
KAOS 260800Z 13004KT 17/16 A2997 RMK A01 T01740158  RH  095%=      5-min Rain = 0
KAOS 260805Z 12004KT 17/16 A2997 RMK A01 T01730157  RH  095%=      5-min Rain = 0
KAOS 260810Z 11005KT 17/16 A2997 RMK A01 T01710156  RH  095%=      5-min Rain = 0
KAOS 260815Z 11004KT 17/16 A2997 RMK A01 T01700156  RH  096%=      5-min Rain = 0
KAOS 260820Z 09005KT 17/16 A2997 RMK A01 T01700156  RH  096%=      5-min Rain = 0
KAOS 260825Z 08007KT 17/16 A2997 RMK A01 T01700156  RH  096%=      5-min Rain = 0
KAOS 260830Z 07007KT 17/16 A2997 RMK A01 T01700156  RH  096%=      5-min Rain = 0
KAOS 260835Z 08007KT 17/16 A2997 RMK A01 T01700157  RH  096%=      5-min Rain = 0
KAOS 260840Z 08008KT 17/16 A2997 RMK A01 T01700157  RH  096%=      5-min Rain = 0
KAOS 260845Z 08008KT 17/16 A2997 RMK A01 T01700157  RH  096%=      5-min Rain = 0
KAOS 260850Z 10007KT 17/16 A2997 RMK A01 T01690157  RH  097%=      5-min Rain = 0
KAOS 260855Z 10006KT 17/16 A2997 RMK A01 T01680156  RH  097%=      5-min Rain = 0
KAOS 260900Z 09007KT 17/16 A2997 RMK A01 T01680156  RH  097%=      5-min Rain = 0
KAOS 260905Z 09007KT 17/16 A2997 RMK A01 T01680156  RH  097%=      5-min Rain = 0
KAOS 260910Z 09006KT 17/16 A2997 RMK A01 T01680156  RH  097%=      5-min Rain = 0
KAOS 260915Z 09007KT 17/16 A2996 RMK A01 T01680156  RH  097%=      5-min Rain = 0
KAOS 260920Z 09008KT 17/16 A2996 RMK A01 T01690157  RH  097%=      5-min Rain = 0
KAOS 260925Z 09007KT 17/16 A2997 RMK A01 T01680157  RH  097%=      5-min Rain = 0
KAOS 260930Z 10006KT 17/16 A2997 RMK A01 T01680157  RH  097%=      5-min Rain = 0
KAOS 260935Z 11006KT 17/16 A2997 RMK A01 T01700158  RH  097%=      5-min Rain = 0
KAOS 260940Z 12005KT 17/16 A2997 RMK A01 T01690157  RH  097%=      5-min Rain = 0
KAOS 260945Z 11005KT 17/16 A2998 RMK A01 T01680156  RH  097%=      5-min Rain = 0
KAOS 260950Z 11006KT 17/16 A2997 RMK A01 T01690156  RH  097%=      5-min Rain = 0
KAOS 260955Z 12007KT 17/16 A2997 RMK A01 T01700157  RH  097%=      5-min Rain = 0
KAOS 261000Z 12007KT 17/16 A2997 RMK A01 T01720158  RH  096%=      5-min Rain = 0
KAOS 261005Z 13006KT 17/16 A2998 RMK A01 T01710157  RH  096%=      5-min Rain = 0
KAOS 261010Z 13005KT 17/16 A2998 RMK A01 T01710157  RH  096%=      5-min Rain = 0
KAOS 261015Z 12006KT 17/16 A2998 RMK A01 T01730159  RH  096%=      5-min Rain = 0
KAOS 261020Z 12006KT 17/16 A2998 RMK A01 T01740160  RH  096%=      5-min Rain = 0
KAOS 261025Z 13006KT 18/16 A2998 RMK A01 T01760162  RH  096%=      5-min Rain = 0
KAOS 261030Z 13006KT 18/16 A2998 RMK A01 T01770163  RH  096%=      5-min Rain = 0
KAOS 261035Z 13006KT 18/16 A2998 RMK A01 T01790164  RH  096%=      5-min Rain = 0
KAOS 261040Z 13007KT 18/17 A2998 RMK A01 T01810166  RH  096%=      5-min Rain = 0
KAOS 261045Z 13008KT 18/17 A2998 RMK A01 T01830167  RH  095%=      5-min Rain = 0
KAOS 261050Z 13008KT 19/17 A2998 RMK A01 T01850168  RH  095%=      5-min Rain = 0
KAOS 261055Z 13008KT 19/17 A2998 RMK A01 T01860169  RH  094%=      5-min Rain = 0
KAOS 261100Z 13009KT 19/17 A2998 RMK A01 T01860170  RH  095%=      5-min Rain = 0
KAOS 261105Z 14009KT 19/17 A2998 RMK A01 T01870171  RH  095%=      5-min Rain = 0
KAOS 261110Z 14010KT 19/17 A2998 RMK A01 T01880172  RH  095%=      5-min Rain = 0
KAOS 261115Z 14011KT 19/17 A2998 RMK A01 T01900173  RH  094%=      5-min Rain = 0
KAOS 261120Z 14012KT 19/17 A2998 RMK A01 T01910173  RH  094%=      5-min Rain = 0
KAOS 261125Z 14012KT 19/17 A2998 RMK A01 T01920174  RH  094%=      5-min Rain = 0
KAOS 261130Z 14013KT 19/17 A2998 RMK A01 T01930174  RH  094%=      5-min Rain = 0
KAOS 261135Z 14013KT 19/18 A2998 RMK A01 T01930175  RH  094%=      5-min Rain = 0
KAOS 261140Z 14013KT 19/18 A2998 RMK A01 T01930175  RH  094%=      5-min Rain = 0
KAOS 261145Z 14013KT 19/18 A2998 RMK A01 T01930175  RH  094%=      5-min Rain = 0
KAOS 261150Z 14012KT 19/18 A2998 RMK A01 T01940176  RH  094%=      5-min Rain = 0
KAOS 261155Z 14012KT 19/18 A2998 RMK A01 T01940176  RH  094%=      5-min Rain = 0
KAOS 261200Z 14013KT 19/18 A2998 RMK A01 T01940176  RH  094%=      5-min Rain = 0
KAOS 261205Z 14013KT 19/18 A2998 RMK A01 T01940176  RH  094%=      5-min Rain = 0
KAOS 261210Z 14013KT 19/18 A2998 RMK A01 T01940177  RH  094%=      5-min Rain = 0
KAOS 261215Z 14014KT 20/18 A2998 RMK A01 T01950177  RH  094%=      5-min Rain = 0
KAOS 261220Z 14014KT 20/18 A2998 RMK A01 T01950177  RH  094%=      5-min Rain = 0
KAOS 261225Z 14013KT 20/18 A2998 RMK A01 T01950178  RH  094%=      5-min Rain = 0
KAOS 261230Z 14013KT 20/18 A2999 RMK A01 T01960178  RH  094%=      5-min Rain = 0
KAOS 261235Z 14012KT 20/18 A2999 RMK A01 T01960178  RH  094%=      5-min Rain = 0
KAOS 261240Z 14013KT 20/18 A2999 RMK A01 T01970179  RH  094%=      5-min Rain = 0
KAOS 261245Z 14013KT 20/18 A2999 RMK A01 T01970179  RH  094%=      5-min Rain = 0
KAOS 261250Z 14013KT 20/18 A2999 RMK A01 T01970179  RH  094%=      5-min Rain = 0
KAOS 261255Z 14013KT 20/18 A2999 RMK A01 T01980179  RH  094%=      5-min Rain = 0
KAOS 261300Z 14013KT 20/18 A2999 RMK A01 T01980179  RH  094%=      5-min Rain = 0
KAOS 261305Z 14013KT 20/18 A2999 RMK A01 T01980179  RH  094%=      5-min Rain = 0
KAOS 261310Z 14014KT 20/18 A2999 RMK A01 T01980179  RH  094%=      5-min Rain = 0
KAOS 261315Z 14013KT 20/18 A2999 RMK A01 T01980179  RH  093%=      5-min Rain = 0
KAOS 261320Z 14013G18KT 20/18 A2999 RMK A01 T01990180  RH  094%=      5-min Rain = 0
KAOS 261325Z 14013KT 20/18 A2999 RMK A01 T01990180  RH  093%=      5-min Rain = 0
KAOS 261330Z 14014KT 20/18 A2999 RMK A01 T01990180  RH  093%=      5-min Rain = 0
KAOS 261335Z 14014KT 20/18 A2999 RMK A01 T01990179  RH  093%=      5-min Rain = 0
KAOS 261340Z 15013KT 20/18 A2999 RMK A01 T02000180  RH  093%=      5-min Rain = 0
KAOS 261345Z 15014KT 20/18 A30 RMK A01 T02000180  RH  093%=      5-min Rain = 0
KAOS 261350Z 15013KT 20/18 A30 RMK A01 T02000180  RH  093%=      5-min Rain = 0
KAOS 261355Z 15013KT 20/18 A30 RMK A01 T02010180  RH  092%=      5-min Rain = 0
KAOS 261400Z 15012KT 20/18 A3001 RMK A01 T02010180  RH  092%=      5-min Rain = 0
KAOS 261405Z 15012KT 20/18 A3001 RMK A01 T02010180  RH  092%=      5-min Rain = 0
KAOS 261410Z 15013KT 20/18 A3001 RMK A01 T02020181  RH  093%=      5-min Rain = 0
KAOS 261415Z 15014KT 20/18 A3001 RMK A01 T02020181  RH  092%=      5-min Rain = 0
KAOS 261420Z 16013KT 20/18 A3001 RMK A01 T02030181  RH  092%=      5-min Rain = 0
KAOS 261425Z 16013KT 20/18 A3001 RMK A01 T02030181  RH  092%=      5-min Rain = 0
KAOS 261430Z 16013KT 20/18 A3001 RMK A01 T02040181  RH  092%=      5-min Rain = 0
KAOS 261435Z 16013KT 21/18 A3001 RMK A01 T02050182  RH  091%=      5-min Rain = 0
KAOS 261440Z 15015KT 21/18 A3001 RMK A01 T02060182  RH  091%=      5-min Rain = 0
KAOS 261445Z 16014KT 21/18 A3001 RMK A01 T02070182  RH  090%=      5-min Rain = 0
KAOS 261450Z 16013G18KT 21/18 A3001 RMK A01 T02080183  RH  090%=      5-min Rain = 0
KAOS 261455Z 15014KT 21/18 A30 RMK A01 T02080182  RH  090%=      5-min Rain = 0
KAOS 261500Z 15014KT 21/18 A3001 RMK A01 T02080182  RH  090%=      5-min Rain = 0
KAOS 261505Z 15014KT 21/18 A3001 RMK A01 T02080182  RH  090%=      5-min Rain = 0
KAOS 261510Z 15013KT 21/18 A30 RMK A01 T02090182  RH  089%=      5-min Rain = 0
KAOS 261515Z 15015KT 21/18 A30 RMK A01 T02100182  RH  089%=      5-min Rain = 0
KAOS 261520Z 15015KT 21/18 A30 RMK A01 T02100182  RH  089%=      5-min Rain = 0
KAOS 261525Z 15015KT 21/18 A3001 RMK A01 T02100182  RH  089%=      5-min Rain = 0
KAOS 261530Z 15014KT 21/18 A30 RMK A01 T02090182  RH  089%=      5-min Rain = 0
KAOS 261535Z 15015G20KT 21/18 A30 RMK A01 T02090182  RH  089%=      5-min Rain = 0
KAOS 261540Z 15016KT 21/18 A30 RMK A01 T02100182  RH  089%=      5-min Rain = 0
KAOS 261545Z 15014KT 21/18 A30 RMK A01 T02100182  RH  089%=      5-min Rain = 0
KAOS 261550Z 15014G19KT 21/18 A30 RMK A01 T02100182  RH  088%=      5-min Rain = 0
KAOS 261555Z 16015G20KT 21/18 A30 RMK A01 T02120182  RH  088%=      5-min Rain = 0
KAOS 261600Z 16015KT 21/18 A3001 RMK A01 T02120182  RH  087%=      5-min Rain = 0
KAOS 261605Z 16015KT 21/18 A30 RMK A01 T02140183  RH  087%=      5-min Rain = 0
KAOS 261610Z 16017KT 21/18 A30 RMK A01 T02140182  RH  086%=      5-min Rain = 0
KAOS 261615Z 15016G22KT 22/18 A30 RMK A01 T02160183  RH  086%=      5-min Rain = 0
KAOS 261620Z 15016KT 22/18 A30 RMK A01 T02170183  RH  086%=      5-min Rain = 0
KAOS 261625Z 15016G22KT 22/18 A30 RMK A01 T02180184  RH  086%=      5-min Rain = 0
KAOS 261630Z 16016KT 22/18 A30 RMK A01 T02170184  RH  086%=      5-min Rain = 0
KAOS 261635Z 16014KT 22/18 A3001 RMK A01 T02180184  RH  086%=      5-min Rain = 0
KAOS 261640Z 16014KT 22/19 A3001 RMK A01 T02190186  RH  086%=      5-min Rain = 0
KAOS 261645Z 15015KT 22/19 A30 RMK A01 T02210186  RH  085%=      5-min Rain = 0
KAOS 261650Z 15015KT 22/19 A30 RMK A01 T02220187  RH  085%=      5-min Rain = 0
KAOS 261655Z 15016KT 22/19 A30 RMK A01 T02220186  RH  084%=      5-min Rain = 0
KAOS 261700Z 15017KT 22/19 A30 RMK A01 T02220185  RH  084%=      5-min Rain = 0
KAOS 261705Z 15017KT 22/19 A30 RMK A01 T02220185  RH  084%=      5-min Rain = 0
KAOS 261710Z 16018KT 22/18 A30 RMK A01 T02240184  RH  083%=      5-min Rain = 0
KAOS 261715Z 16015KT 22/18 A30 RMK A01 T02240184  RH  083%=      5-min Rain = 0
KAOS 261720Z 15015G20KT 22/19 A30 RMK A01 T02220185  RH  084%=      5-min Rain = 0
KAOS 261725Z 15015KT 22/19 A30 RMK A01 T02220185  RH  084%=      5-min Rain = 0
KAOS 261730Z 15015G20KT 22/19 A30 RMK A01 T02240186  RH  084%=      5-min Rain = 0
KAOS 261735Z 15016KT 23/19 A30 RMK A01 T02250185  RH  082%=      5-min Rain = 0
KAOS 261740Z 15017KT 23/18 A2999 RMK A01 T02250184  RH  082%=      5-min Rain = 0
KAOS 261745Z 15017KT 23/19 A2999 RMK A01 T02250185  RH  083%=      5-min Rain = 0
KAOS 261750Z 15017KT 23/19 A2999 RMK A01 T02260187  RH  083%=      5-min Rain = 0
KAOS 261755Z 15018KT 23/19 A2999 RMK A01 T02270187  RH  083%=      5-min Rain = 0
KAOS 261800Z 15018KT 23/19 A2999 RMK A01 T02280187  RH  082%=      5-min Rain = 0
KAOS 261805Z 14017G22KT 23/19 A2999 RMK A01 T02290187  RH  082%=      5-min Rain = 0
KAOS 261810Z 15018KT 23/19 A2999 RMK A01 T02300188  RH  082%=      5-min Rain = 0
KAOS 261815Z 15018KT 23/19 A2999 RMK A01 T02290187  RH  081%=      5-min Rain = 0
KAOS 261820Z 16018KT 23/19 A30 RMK A01 T02280185  RH  081%=      5-min Rain = 0
KAOS 261825Z 16018KT 23/19 A30 RMK A01 T02280185  RH  081%=      5-min Rain = 0
KAOS 261830Z 16018KT 23/18 A3001 RMK A01 T02270183  RH  081%=      5-min Rain = 0
KAOS 261835Z 17017KT 23/18 A3001 RMK A01 T02250183  RH  081%=      5-min Rain = 0
KAOS 261840Z 16016KT 23/18 A3001 RMK A01 T02250183  RH  081%=      5-min Rain = 0
KAOS 261845Z 16014KT 23/18 A3001 RMK A01 T02250184  RH  082%=      5-min Rain = 0
KAOS 261850Z 16015KT 23/18 A3001 RMK A01 T02260184  RH  081%=      5-min Rain = 0
KAOS 261855Z 16015KT 23/18 A3001 RMK A01 T02250183  RH  081%=      5-min Rain = 0
KAOS 261900Z 16013KT 23/18 A30 RMK A01 T02250183  RH  082%=      5-min Rain = 0
KAOS 261905Z 16012G17KT 23/19 A30 RMK A01 T02260185  RH  082%=      5-min Rain = 0
KAOS 261910Z 16015KT 23/18 A3001 RMK A01 T02270183  RH  081%=      5-min Rain = 0
KAOS 261915Z 17016KT 23/18 A3001 RMK A01 T02270183  RH  080%=      5-min Rain = 0
KAOS 261920Z 17016KT 23/18 A3001 RMK A01 T02280184  RH  080%=      5-min Rain = 0
KAOS 261925Z 16016KT 23/18 A30 RMK A01 T02280184  RH  080%=      5-min Rain = 0
KAOS 261930Z 16017KT 23/18 A30 RMK A01 T02290183  RH  079%=      5-min Rain = 0
KAOS 261935Z 16016KT 23/18 A30 RMK A01 T02290183  RH  079%=      5-min Rain = 0
KAOS 261940Z 16016KT 23/18 A30 RMK A01 T02290182  RH  079%=      5-min Rain = 0
KAOS 261945Z 16015KT 23/18 A2999 RMK A01 T02280183  RH  080%=      5-min Rain = 0
KAOS 261950Z 15015KT 23/18 A2999 RMK A01 T02280182  RH  079%=      5-min Rain = 0
KAOS 261955Z 15015KT 23/18 A2999 RMK A01 T02280183  RH  080%=      5-min Rain = 0
KAOS 262000Z 15016G21KT 23/18 A2999 RMK A01 T02250184  RH  082%=      5-min Rain = 0
KAOS 262005Z 15014KT 23/18 A2999 RMK A01 T02250184  RH  082%=      5-min Rain = 0
KAOS 262010Z 14014G20KT 22/19 A2997 RMK A01 T02240185  RH  083%=      5-min Rain = 0
KAOS 262015Z 14018KT 22/18 A2998 RMK A01 T02230184  RH  083%=      5-min Rain = 0
KAOS 262020Z 14017KT 22/19 A2998 RMK A01 T02230185  RH  084%=      5-min Rain = 0
KAOS 262025Z 14016KT 22/19 A2997 RMK A01 T02230185  RH  084%=      5-min Rain = 0
KAOS 262030Z 13014KT 22/19 A2996 RMK A01 T02230185  RH  084%=      5-min Rain = 0
KAOS 262035Z 13017KT 22/19 A2996 RMK A01 T02240186  RH  084%=      5-min Rain = 0
KAOS 262040Z 14017KT 23/19 A2996 RMK A01 T02250186  RH  083%=      5-min Rain = 0
KAOS 262045Z 14018KT 23/19 A2996 RMK A01 T02260187  RH  083%=      5-min Rain = 0
KAOS 262050Z 14017KT 23/19 A2996 RMK A01 T02250186  RH  083%=      5-min Rain = 0
KAOS 262055Z 14018KT 22/19 A2996 RMK A01 T02240186  RH  083%=      5-min Rain = 0
KAOS 262100Z 14017G23KT 22/19 A2995 RMK A01 T02240185  RH  083%=      5-min Rain = 0
KAOS 262105Z 14019KT 23/19 A2995 RMK A01 T02250186  RH  083%=      5-min Rain = 0
KAOS 262110Z 14017KT 23/19 A2994 RMK A01 T02250187  RH  083%=      5-min Rain = 0
KAOS 262115Z 14017G22KT 23/19 A2994 RMK A01 T02250186  RH  083%=      5-min Rain = 0
KAOS 262120Z 14017KT 23/19 A2994 RMK A01 T02260187  RH  083%=      5-min Rain = 0
KAOS 262125Z 14017G23KT 23/19 A2993 RMK A01 T02260187  RH  083%=      5-min Rain = 0
KAOS 262130Z 14020KT 23/19 A2992 RMK A01 T02260187  RH  083%=      5-min Rain = 0
KAOS 262135Z 14022KT 23/19 A2992 RMK A01 T02270186  RH  082%=      5-min Rain = 0
KAOS 262140Z 14021KT 23/19 A2992 RMK A01 T02270186  RH  082%=      5-min Rain = 0
KAOS 262145Z 14020KT 23/19 A2992 RMK A01 T02270186  RH  082%=      5-min Rain = 0
KAOS 262150Z 14020G25KT 23/19 A2991 RMK A01 T02270186  RH  082%=      5-min Rain = 0
KAOS 262155Z 14021G27KT 23/19 A2992 RMK A01 T02260186  RH  082%=      5-min Rain = 0
KAOS 262200Z 14020G27KT 23/19 A2992 RMK A01 T02260185  RH  082%=      5-min Rain = 0
KAOS 262205Z 15017G22KT 23/19 A2992 RMK A01 T02280185  RH  081%=      5-min Rain = 0
KAOS 262210Z 14018KT 23/19 A2991 RMK A01 T02280185  RH  081%=      5-min Rain = 0
KAOS 262215Z 14019G24KT 23/19 A299 RMK A01 T02290186  RH  081%=      5-min Rain = 0
KAOS 262220Z 12024G29KT 23/19 A2986 RMK A01 T02290186  RH  081%=      5-min Rain = 0
KAOS 262225Z 13024G30KT 23/19 A2986 RMK A01 T02310187  RH  081%=      5-min Rain = 0
KAOS 262230Z 13025G30KT 23/19 A2987 RMK A01 T02340188  RH  079%=      5-min Rain = 0
KAOS 262235Z 14025G30KT 24/19 A2989 RMK A01 T02370188  RH  078%=      5-min Rain = 0
KAOS 262240Z 14023G29KT 24/19 A2989 RMK A01 T02400190  RH  078%=      5-min Rain = 0
KAOS 262245Z 15025KT 24/19 A299 RMK A01 T02400188  RH  077%=      5-min Rain = 0
KAOS 262250Z 15024G29KT 24/19 A299 RMK A01 T02390188  RH  077%=      5-min Rain = 0
KAOS 262255Z 15023G28KT 24/19 A299 RMK A01 T02400187  RH  076%=      5-min Rain = 0
KAOS 262300Z 15023G28KT 24/19 A299 RMK A01 T02400186  RH  076%=      5-min Rain = 0
KAOS 262305Z 16020G26KT 24/19 A2991 RMK A01 T02420189  RH  077%=      5-min Rain = 0
KAOS 262310Z 16021G26KT 24/19 A2991 RMK A01 T02390188  RH  077%=      5-min Rain = 0
KAOS 262315Z 15022G27KT 24/19 A299 RMK A01 T02390187  RH  077%=      5-min Rain = 0
KAOS 262320Z 15023G28KT 24/19 A299 RMK A01 T02410186  RH  076%=      5-min Rain = 0
KAOS 262325Z 15022G28KT 24/19 A299 RMK A01 T02390186  RH  076%=      5-min Rain = 0
KAOS 262330Z 16022G29KT 24/19 A299 RMK A01 T02380185  RH  076%=      5-min Rain = 0
KAOS 262335Z 15020G25KT 24/19 A2989 RMK A01 T02390187  RH  077%=      5-min Rain = 0
KAOS 262340Z 15021G27KT 24/19 A2989 RMK A01 T02380185  RH  076%=      5-min Rain = 0
KAOS 262345Z 15021G26KT 24/19 A2988 RMK A01 T02380186  RH  077%=      5-min Rain = 0
KAOS 262350Z 15021G26KT 24/19 A2988 RMK A01 T02370187  RH  078%=      5-min Rain = 0
KAOS 262355Z 15019G27KT 24/19 A2988 RMK A01 T02390187  RH  077%=      5-min Rain = 0
KAOS 270000Z 15021G27KT 24/19 A2988 RMK A01 T02400185  RH  075%=      5-min Rain = 0
KAOS 270005Z 15023G28KT 24/18 A2987 RMK A01 T02420183  RH  073%=      5-min Rain = 0
KAOS 270010Z 15023G29KT 24/18 A2987 RMK A01 T02420182  RH  073%=      5-min Rain = 0
KAOS 270015Z 14022G28KT 24/18 A2987 RMK A01 T02380184  RH  076%=      5-min Rain = 0
KAOS 270020Z 15022KT 24/18 A2986 RMK A01 T02360183  RH  076%=      5-min Rain = 0
KAOS 270025Z 15022KT 24/18 A2986 RMK A01 T02350182  RH  076%=      5-min Rain = 0
KAOS 270030Z 15022G28KT 24/18 A2985 RMK A01 T02360183  RH  076%=      5-min Rain = 0
KAOS 270035Z 15026G31KT 24/18 A2985 RMK A01 T02380181  RH  074%=      5-min Rain = 0
KAOS 270040Z 15023KT 24/18 A2985 RMK A01 T02350182  RH  076%=      5-min Rain = 0
KAOS 270045Z 15024G30KT 23/18 A2985 RMK A01 T02340181  RH  076%=      5-min Rain = 0
KAOS 270050Z 15024G30KT 23/18 A2985 RMK A01 T02330180  RH  076%=      5-min Rain = 0
KAOS 270055Z 15022KT 23/18 A2985 RMK A01 T02310180  RH  077%=      5-min Rain = 0
KAOS 270100Z 15021G26KT 23/18 A2985 RMK A01 T02300180  RH  077%=      5-min Rain = 0
KAOS 270105Z 15020KT 23/18 A2984 RMK A01 T02280179  RH  078%=      5-min Rain = 0
KAOS 270110Z 15021KT 23/18 A2984 RMK A01 T02280180  RH  078%=      5-min Rain = 0
KAOS 270115Z 15022G27KT 23/18 A2984 RMK A01 T02270179  RH  078%=      5-min Rain = 0
KAOS 270120Z 15022KT 23/18 A2984 RMK A01 T02260178  RH  078%=      5-min Rain = 0
KAOS 270125Z 15022KT 23/18 A2984 RMK A01 T02260178  RH  078%=      5-min Rain = 0
KAOS 270130Z 15023G28KT 23/18 A2984 RMK A01 T02260178  RH  078%=      5-min Rain = 0
KAOS 270135Z 15023G30KT 23/18 A2983 RMK A01 T02250178  RH  079%=      5-min Rain = 0
KAOS 270140Z 15021G28KT 22/18 A2983 RMK A01 T02240178  RH  079%=      5-min Rain = 0
KAOS 270145Z 15022G29KT 22/18 A2983 RMK A01 T02230177  RH  079%=      5-min Rain = 0
KAOS 270150Z 15021G26KT 22/18 A2984 RMK A01 T02220176  RH  079%=      5-min Rain = 0
KAOS 270155Z 15021KT 22/18 A2985 RMK A01 T02220176  RH  079%=      5-min Rain = 0
KAOS 270200Z 16021G27KT 22/18 A2985 RMK A01 T02210176  RH  080%=      5-min Rain = 0
KAOS 270205Z 16022KT 22/18 A2985 RMK A01 T02210176  RH  079%=      5-min Rain = 0
KAOS 270210Z 16022G31KT 22/18 A2986 RMK A01 T02200175  RH  080%=      5-min Rain = 0
KAOS 270215Z 16023KT 22/18 A2986 RMK A01 T02200175  RH  080%=      5-min Rain = 0
KAOS 270220Z 16021G27KT 22/18 A2986 RMK A01 T02190175  RH  080%=      5-min Rain = 0
KAOS 270225Z 16021G27KT 22/18 A2986 RMK A01 T02190175  RH  080%=      5-min Rain = 0
KAOS 270230Z 16020KT 22/18 A2987 RMK A01 T02180175  RH  080%=      5-min Rain = 0
KAOS 270235Z 15019G25KT 22/18 A2987 RMK A01 T02180175  RH  081%=      5-min Rain = 0
KAOS 270240Z 15019KT 22/18 A2987 RMK A01 T02180175  RH  080%=      5-min Rain = 0
KAOS 270245Z 15018KT 22/18 A2987 RMK A01 T02170175  RH  081%=      5-min Rain = 0
KAOS 270250Z 15019G24KT 22/18 A2987 RMK A01 T02170175  RH  081%=      5-min Rain = 0
KAOS 270255Z 15018G23KT 22/18 A2987 RMK A01 T02170175  RH  081%=      5-min Rain = 0
KAOS 270300Z 15019G25KT 22/17 A2987 RMK A01 T02170174  RH  081%=      5-min Rain = 0
KAOS 270305Z 15020G25KT 22/17 A2986 RMK A01 T02160174  RH  081%=      5-min Rain = 0
KAOS 270310Z 15020G25KT 22/17 A2987 RMK A01 T02150174  RH  081%=      5-min Rain = 0
KAOS 270315Z 15018KT 22/17 A2987 RMK A01 T02150174  RH  081%=      5-min Rain = 0
KAOS 270320Z 15016KT 21/17 A2987 RMK A01 T02140174  RH  082%=      5-min Rain = 0
KAOS 270325Z 15016KT 21/17 A2988 RMK A01 T02130173  RH  082%=      5-min Rain = 0
KAOS 270330Z 16016KT 21/17 A2988 RMK A01 T02130173  RH  082%=      5-min Rain = 0
KAOS 270335Z 16017KT 21/17 A2988 RMK A01 T02130172  RH  081%=      5-min Rain = 0
KAOS 270340Z 16016G21KT 21/17 A2988 RMK A01 T02110172  RH  082%=      5-min Rain = 0
KAOS 270345Z 16017KT 21/17 A2988 RMK A01 T02110172  RH  083%=      5-min Rain = 0
KAOS 270350Z 16016KT 21/17 A2988 RMK A01 T02100171  RH  082%=      5-min Rain = 0
KAOS 270355Z 16015KT 21/17 A2988 RMK A01 T02090171  RH  083%=      5-min Rain = 0
KAOS 270400Z 16014KT 21/17 A2989 RMK A01 T02080171  RH  083%=      5-min Rain = 0
KAOS 270405Z 16014KT 21/17 A2989 RMK A01 T02070171  RH  084%=      5-min Rain = 0
KAOS 270410Z 16013KT 21/17 A2989 RMK A01 T02070170  RH  084%=      5-min Rain = 0
KAOS 270415Z 16014KT 21/17 A2989 RMK A01 T02070170  RH  084%=      5-min Rain = 0
KAOS 270420Z 16014KT 21/17 A2989 RMK A01 T02070170  RH  084%=      5-min Rain = 0
KAOS 270425Z 16013KT 21/17 A2989 RMK A01 T02060170  RH  084%=      5-min Rain = 0
KAOS 270430Z 16013KT 21/17 A2989 RMK A01 T02060170  RH  084%=      5-min Rain = 0
KAOS 270435Z 16013G18KT 21/17 A2989 RMK A01 T02050170  RH  084%=      5-min Rain = 0
KAOS 270440Z 16013KT 20/17 A2989 RMK A01 T02040169  RH  084%=      5-min Rain = 0
KAOS 270445Z 17012KT 20/17 A2989 RMK A01 T02040169  RH  085%=      5-min Rain = 0
KAOS 270450Z 17011KT 20/17 A2989 RMK A01 T02030169  RH  085%=      5-min Rain = 0
KAOS 270455Z 16011KT 20/17 A2989 RMK A01 T02020169  RH  085%=      5-min Rain = 0

Page generated in 0.0092 seconds.